sensor_id;sensor_type;location;lat;lon;timestamp;P1;durP1;ratioP1;P2;durP2;ratioP2
9330;SDS011;4704;50.470;12.072;2023-03-01T00:00:16;8.27;;;7.57;;
9330;SDS011;4704;50.470;12.072;2023-03-01T00:02:44;7.90;;;7.20;;
9330;SDS011;4704;50.470;12.072;2023-03-01T00:05:11;7.72;;;7.03;;
9330;SDS011;4704;50.470;12.072;2023-03-01T00:07:39;7.28;;;6.65;;
9330;SDS011;4704;50.470;12.072;2023-03-01T00:10:07;7.57;;;6.88;;
9330;SDS011;4704;50.470;12.072;2023-03-01T00:12:35;7.32;;;6.72;;
9330;SDS011;4704;50.470;12.072;2023-03-01T00:15:03;7.57;;;6.88;;
9330;SDS011;4704;50.470;12.072;2023-03-01T00:17:32;7.30;;;6.70;;
9330;SDS011;4704;50.470;12.072;2023-03-01T00:20:00;7.30;;;6.60;;
9330;SDS011;4704;50.470;12.072;2023-03-01T00:22:28;7.38;;;6.68;;
9330;SDS011;4704;50.470;12.072;2023-03-01T00:24:55;7.65;;;7.00;;
9330;SDS011;4704;50.470;12.072;2023-03-01T00:27:23;7.03;;;6.43;;
9330;SDS011;4704;50.470;12.072;2023-03-01T00:29:51;7.38;;;6.68;;
9330;SDS011;4704;50.470;12.072;2023-03-01T00:32:19;7.07;;;6.47;;
9330;SDS011;4704;50.470;12.072;2023-03-01T00:34:48;7.00;;;6.40;;
9330;SDS011;4704;50.470;12.072;2023-03-01T00:37:20;7.68;;;6.97;;
9330;SDS011;4704;50.470;12.072;2023-03-01T00:39:48;7.20;;;6.60;;
9330;SDS011;4704;50.470;12.072;2023-03-01T00:42:16;6.68;;;5.97;;
9330;SDS011;4704;50.470;12.072;2023-03-01T00:44:43;7.00;;;6.32;;
9330;SDS011;4704;50.470;12.072;2023-03-01T00:47:12;7.15;;;6.47;;
9330;SDS011;4704;50.470;12.072;2023-03-01T00:49:40;6.80;;;6.20;;
9330;SDS011;4704;50.470;12.072;2023-03-01T00:52:09;6.75;;;6.25;;
9330;SDS011;4704;50.470;12.072;2023-03-01T00:54:37;6.43;;;5.93;;
9330;SDS011;4704;50.470;12.072;2023-03-01T00:57:04;6.85;;;6.25;;
9330;SDS011;4704;50.470;12.072;2023-03-01T00:59:32;6.90;;;6.30;;
9330;SDS011;4704;50.470;12.072;2023-03-01T01:02:00;6.50;;;5.95;;
9330;SDS011;4704;50.470;12.072;2023-03-01T01:04:27;7.05;;;6.45;;
9330;SDS011;4704;50.470;12.072;2023-03-01T01:06:55;6.60;;;6.00;;
9330;SDS011;4704;50.470;12.072;2023-03-01T01:09:24;6.78;;;6.18;;
9330;SDS011;4704;50.470;12.072;2023-03-01T01:11:52;6.93;;;6.22;;
9330;SDS011;4704;50.470;12.072;2023-03-01T01:14:20;6.68;;;6.07;;
9330;SDS011;4704;50.470;12.072;2023-03-01T01:16:48;7.22;;;6.63;;
9330;SDS011;4704;50.470;12.072;2023-03-01T01:19:16;7.00;;;6.40;;
9330;SDS011;4704;50.470;12.072;2023-03-01T01:21:44;6.80;;;6.20;;
9330;SDS011;4704;50.470;12.072;2023-03-01T01:24:13;6.50;;;6.00;;
9330;SDS011;4704;50.470;12.072;2023-03-01T01:26:42;6.80;;;6.20;;
9330;SDS011;4704;50.470;12.072;2023-03-01T01:29:10;6.68;;;6.13;;
9330;SDS011;4704;50.470;12.072;2023-03-01T01:31:39;6.00;;;5.50;;
9330;SDS011;4704;50.470;12.072;2023-03-01T01:34:08;6.55;;;5.95;;
9330;SDS011;4704;50.470;12.072;2023-03-01T01:36:35;6.43;;;5.90;;
9330;SDS011;4704;50.470;12.072;2023-03-01T01:39:03;6.38;;;5.88;;
9330;SDS011;4704;50.470;12.072;2023-03-01T01:41:32;6.20;;;5.70;;
9330;SDS011;4704;50.470;12.072;2023-03-01T01:44:12;5.97;;;5.47;;
9330;SDS011;4704;50.470;12.072;2023-03-01T01:46:40;6.70;;;6.10;;
9330;SDS011;4704;50.470;12.072;2023-03-01T01:49:11;6.28;;;5.68;;
9330;SDS011;4704;50.470;12.072;2023-03-01T01:51:43;6.32;;;5.82;;
9330;SDS011;4704;50.470;12.072;2023-03-01T01:54:14;6.82;;;6.32;;
9330;SDS011;4704;50.470;12.072;2023-03-01T01:56:44;6.50;;;5.95;;
9330;SDS011;4704;50.470;12.072;2023-03-01T01:59:15;6.97;;;6.38;;
9330;SDS011;4704;50.470;12.072;2023-03-01T02:01:43;6.43;;;5.85;;
9330;SDS011;4704;50.470;12.072;2023-03-01T02:04:11;6.20;;;5.68;;
9330;SDS011;4704;50.470;12.072;2023-03-01T02:06:39;6.50;;;5.90;;
9330;SDS011;4704;50.470;12.072;2023-03-01T02:09:10;6.78;;;6.18;;
9330;SDS011;4704;50.470;12.072;2023-03-01T02:11:38;6.60;;;6.05;;
9330;SDS011;4704;50.470;12.072;2023-03-01T02:14:06;6.45;;;5.93;;
9330;SDS011;4704;50.470;12.072;2023-03-01T02:16:35;6.22;;;5.72;;
9330;SDS011;4704;50.470;12.072;2023-03-01T02:19:03;6.90;;;6.38;;
9330;SDS011;4704;50.470;12.072;2023-03-01T02:21:35;6.18;;;5.68;;
9330;SDS011;4704;50.470;12.072;2023-03-01T02:24:05;6.40;;;5.90;;
9330;SDS011;4704;50.470;12.072;2023-03-01T02:26:39;6.53;;;5.90;;
9330;SDS011;4704;50.470;12.072;2023-03-01T02:29:10;6.72;;;6.13;;
9330;SDS011;4704;50.470;12.072;2023-03-01T02:31:38;7.10;;;6.50;;
9330;SDS011;4704;50.470;12.072;2023-03-01T02:34:11;7.00;;;6.40;;
9330;SDS011;4704;50.470;12.072;2023-03-01T02:36:40;7.00;;;6.38;;
9330;SDS011;4704;50.470;12.072;2023-03-01T02:39:08;6.80;;;6.13;;
9330;SDS011;4704;50.470;12.072;2023-03-01T02:41:41;6.25;;;5.75;;
9330;SDS011;4704;50.470;12.072;2023-03-01T02:44:11;6.68;;;6.15;;
9330;SDS011;4704;50.470;12.072;2023-03-01T02:46:42;6.80;;;6.20;;
9330;SDS011;4704;50.470;12.072;2023-03-01T02:49:20;6.25;;;5.75;;
9330;SDS011;4704;50.470;12.072;2023-03-01T02:51:52;7.10;;;6.50;;
9330;SDS011;4704;50.470;12.072;2023-03-01T02:54:24;6.85;;;6.30;;
9330;SDS011;4704;50.470;12.072;2023-03-01T02:56:53;6.47;;;5.88;;
9330;SDS011;4704;50.470;12.072;2023-03-01T02:59:23;6.50;;;6.00;;
9330;SDS011;4704;50.470;12.072;2023-03-01T03:01:51;6.95;;;6.28;;
9330;SDS011;4704;50.470;12.072;2023-03-01T03:04:19;6.60;;;6.00;;
9330;SDS011;4704;50.470;12.072;2023-03-01T03:06:47;7.03;;;6.43;;
9330;SDS011;4704;50.470;12.072;2023-03-01T03:09:16;7.25;;;6.65;;
9330;SDS011;4704;50.470;12.072;2023-03-01T03:11:44;6.53;;;5.93;;
9330;SDS011;4704;50.470;12.072;2023-03-01T03:14:13;7.57;;;6.95;;
9330;SDS011;4704;50.470;12.072;2023-03-01T03:16:43;6.95;;;6.35;;
9330;SDS011;4704;50.470;12.072;2023-03-01T03:19:11;7.65;;;6.97;;
9330;SDS011;4704;50.470;12.072;2023-03-01T03:21:39;7.20;;;6.60;;
9330;SDS011;4704;50.470;12.072;2023-03-01T03:24:06;6.88;;;6.30;;
9330;SDS011;4704;50.470;12.072;2023-03-01T03:26:34;7.07;;;6.45;;
9330;SDS011;4704;50.470;12.072;2023-03-01T03:29:02;7.55;;;6.85;;
9330;SDS011;4704;50.470;12.072;2023-03-01T03:31:29;6.88;;;6.28;;
9330;SDS011;4704;50.470;12.072;2023-03-01T03:33:59;6.72;;;6.13;;
9330;SDS011;4704;50.470;12.072;2023-03-01T03:36:26;6.57;;;5.97;;
9330;SDS011;4704;50.470;12.072;2023-03-01T03:38:54;6.97;;;6.40;;
9330;SDS011;4704;50.470;12.072;2023-03-01T03:41:22;6.63;;;6.05;;
9330;SDS011;4704;50.470;12.072;2023-03-01T03:43:49;7.85;;;7.15;;
9330;SDS011;4704;50.470;12.072;2023-03-01T03:46:17;6.75;;;6.10;;
9330;SDS011;4704;50.470;12.072;2023-03-01T03:48:45;7.25;;;6.65;;
9330;SDS011;4704;50.470;12.072;2023-03-01T03:51:15;7.22;;;6.53;;
9330;SDS011;4704;50.470;12.072;2023-03-01T03:53:43;7.00;;;6.40;;
9330;SDS011;4704;50.470;12.072;2023-03-01T03:56:11;7.45;;;6.75;;
9330;SDS011;4704;50.470;12.072;2023-03-01T03:58:39;6.90;;;6.30;;
9330;SDS011;4704;50.470;12.072;2023-03-01T04:01:07;7.40;;;6.78;;
9330;SDS011;4704;50.470;12.072;2023-03-01T04:03:34;7.53;;;6.82;;
9330;SDS011;4704;50.470;12.072;2023-03-01T04:06:02;7.10;;;6.50;;
9330;SDS011;4704;50.470;12.072;2023-03-01T04:08:32;7.13;;;6.53;;
9330;SDS011;4704;50.470;12.072;2023-03-01T04:11:01;6.95;;;6.35;;
9330;SDS011;4704;50.470;12.072;2023-03-01T04:13:49;6.95;;;6.35;;
9330;SDS011;4704;50.470;12.072;2023-03-01T04:16:18;7.28;;;6.68;;
9330;SDS011;4704;50.470;12.072;2023-03-01T04:18:45;7.55;;;6.85;;
9330;SDS011;4704;50.470;12.072;2023-03-01T04:21:13;6.88;;;6.28;;
9330;SDS011;4704;50.470;12.072;2023-03-01T04:23:44;6.90;;;6.30;;
9330;SDS011;4704;50.470;12.072;2023-03-01T04:26:11;6.95;;;6.35;;
9330;SDS011;4704;50.470;12.072;2023-03-01T04:28:40;6.95;;;6.35;;
9330;SDS011;4704;50.470;12.072;2023-03-01T04:31:11;6.85;;;6.25;;
9330;SDS011;4704;50.470;12.072;2023-03-01T04:33:43;6.50;;;6.00;;
9330;SDS011;4704;50.470;12.072;2023-03-01T04:36:12;7.45;;;6.85;;
9330;SDS011;4704;50.470;12.072;2023-03-01T04:38:40;6.93;;;6.32;;
9330;SDS011;4704;50.470;12.072;2023-03-01T04:41:11;6.95;;;6.35;;
9330;SDS011;4704;50.470;12.072;2023-03-01T04:43:39;7.00;;;6.40;;
9330;SDS011;4704;50.470;12.072;2023-03-01T04:46:07;6.85;;;6.25;;
9330;SDS011;4704;50.470;12.072;2023-03-01T04:48:35;7.28;;;6.68;;
9330;SDS011;4704;50.470;12.072;2023-03-01T04:51:03;7.15;;;6.55;;
9330;SDS011;4704;50.470;12.072;2023-03-01T04:53:31;7.25;;;6.57;;
9330;SDS011;4704;50.470;12.072;2023-03-01T04:56:01;7.13;;;6.50;;
9330;SDS011;4704;50.470;12.072;2023-03-01T04:58:30;7.40;;;6.80;;
9330;SDS011;4704;50.470;12.072;2023-03-01T05:00:58;7.45;;;6.75;;
9330;SDS011;4704;50.470;12.072;2023-03-01T05:03:26;7.63;;;6.97;;
9330;SDS011;4704;50.470;12.072;2023-03-01T05:05:53;7.75;;;7.15;;
9330;SDS011;4704;50.470;12.072;2023-03-01T05:08:21;6.68;;;6.07;;
9330;SDS011;4704;50.470;12.072;2023-03-01T05:10:49;7.38;;;6.68;;
9330;SDS011;4704;50.470;12.072;2023-03-01T05:13:17;8.00;;;7.30;;
9330;SDS011;4704;50.470;12.072;2023-03-01T05:15:49;7.35;;;6.68;;
9330;SDS011;4704;50.470;12.072;2023-03-01T05:18:20;7.13;;;6.53;;
9330;SDS011;4704;50.470;12.072;2023-03-01T05:20:51;7.20;;;6.60;;
9330;SDS011;4704;50.470;12.072;2023-03-01T05:23:23;7.47;;;6.88;;
9330;SDS011;4704;50.470;12.072;2023-03-01T05:25:50;7.53;;;6.93;;
9330;SDS011;4704;50.470;12.072;2023-03-01T05:28:19;7.05;;;6.45;;
9330;SDS011;4704;50.470;12.072;2023-03-01T05:30:48;7.47;;;6.80;;
9330;SDS011;4704;50.470;12.072;2023-03-01T05:33:16;7.60;;;7.00;;
9330;SDS011;4704;50.470;12.072;2023-03-01T05:35:44;7.32;;;6.63;;
9330;SDS011;4704;50.470;12.072;2023-03-01T05:38:14;7.05;;;6.45;;
9330;SDS011;4704;50.470;12.072;2023-03-01T05:40:42;7.10;;;6.50;;
9330;SDS011;4704;50.470;12.072;2023-03-01T05:43:10;7.30;;;6.70;;
9330;SDS011;4704;50.470;12.072;2023-03-01T05:45:38;7.65;;;7.05;;
9330;SDS011;4704;50.470;12.072;2023-03-01T05:48:08;7.50;;;6.88;;
9330;SDS011;4704;50.470;12.072;2023-03-01T05:50:37;7.55;;;6.85;;
9330;SDS011;4704;50.470;12.072;2023-03-01T05:53:06;7.80;;;7.10;;
9330;SDS011;4704;50.470;12.072;2023-03-01T05:55:34;7.68;;;6.97;;
9330;SDS011;4704;50.470;12.072;2023-03-01T05:58:03;8.00;;;7.30;;
9330;SDS011;4704;50.470;12.072;2023-03-01T06:00:31;8.10;;;7.40;;
9330;SDS011;4704;50.470;12.072;2023-03-01T06:02:59;7.65;;;6.95;;
9330;SDS011;4704;50.470;12.072;2023-03-01T06:05:28;7.88;;;7.10;;
9330;SDS011;4704;50.470;12.072;2023-03-01T06:07:58;7.70;;;7.00;;
9330;SDS011;4704;50.470;12.072;2023-03-01T06:10:26;7.65;;;7.03;;
9330;SDS011;4704;50.470;12.072;2023-03-01T06:12:54;7.65;;;6.95;;
9330;SDS011;4704;50.470;12.072;2023-03-01T06:15:21;7.80;;;7.10;;
9330;SDS011;4704;50.470;12.072;2023-03-01T06:17:49;7.45;;;6.85;;
9330;SDS011;4704;50.470;12.072;2023-03-01T06:20:18;8.80;;;8.00;;
9330;SDS011;4704;50.470;12.072;2023-03-01T06:22:47;8.30;;;7.32;;
9330;SDS011;4704;50.470;12.072;2023-03-01T06:25:16;7.95;;;7.15;;
9330;SDS011;4704;50.470;12.072;2023-03-01T06:27:44;9.05;;;8.15;;
9330;SDS011;4704;50.470;12.072;2023-03-01T06:30:13;37.25;;;32.08;;
9330;SDS011;4704;50.470;12.072;2023-03-01T06:32:41;48.88;;;43.75;;
9330;SDS011;4704;50.470;12.072;2023-03-01T06:35:09;39.78;;;35.67;;
9330;SDS011;4704;50.470;12.072;2023-03-01T06:37:37;38.28;;;34.28;;
9330;SDS011;4704;50.470;12.072;2023-03-01T06:40:07;36.08;;;32.38;;
9330;SDS011;4704;50.470;12.072;2023-03-01T06:42:37;34.03;;;30.40;;
9330;SDS011;4704;50.470;12.072;2023-03-01T06:45:05;32.20;;;28.80;;
9330;SDS011;4704;50.470;12.072;2023-03-01T06:47:33;32.47;;;29.17;;
9330;SDS011;4704;50.470;12.072;2023-03-01T06:50:02;30.65;;;27.40;;
9330;SDS011;4704;50.470;12.072;2023-03-01T06:52:30;28.10;;;25.20;;
9330;SDS011;4704;50.470;12.072;2023-03-01T06:54:57;26.90;;;24.25;;
9330;SDS011;4704;50.470;12.072;2023-03-01T06:57:26;27.08;;;24.15;;
9330;SDS011;4704;50.470;12.072;2023-03-01T06:59:54;26.58;;;23.95;;
9330;SDS011;4704;50.470;12.072;2023-03-01T07:02:22;25.40;;;22.75;;
9330;SDS011;4704;50.470;12.072;2023-03-01T07:04:50;25.73;;;23.13;;
9330;SDS011;4704;50.470;12.072;2023-03-01T07:07:18;24.38;;;21.90;;
9330;SDS011;4704;50.470;12.072;2023-03-01T07:09:46;23.52;;;21.23;;
9330;SDS011;4704;50.470;12.072;2023-03-01T07:12:14;23.15;;;20.85;;
9330;SDS011;4704;50.470;12.072;2023-03-01T07:14:44;23.60;;;21.17;;
9330;SDS011;4704;50.470;12.072;2023-03-01T07:17:12;21.95;;;19.63;;
9330;SDS011;4704;50.470;12.072;2023-03-01T07:19:40;20.10;;;18.05;;
9330;SDS011;4704;50.470;12.072;2023-03-01T07:22:07;20.80;;;18.63;;
9330;SDS011;4704;50.470;12.072;2023-03-01T07:24:35;20.00;;;18.00;;
9330;SDS011;4704;50.470;12.072;2023-03-01T07:27:02;19.35;;;17.52;;
9330;SDS011;4704;50.470;12.072;2023-03-01T07:29:30;19.38;;;17.02;;
9330;SDS011;4704;50.470;12.072;2023-03-01T07:31:59;17.65;;;15.95;;
9330;SDS011;4704;50.470;12.072;2023-03-01T07:34:27;17.50;;;15.77;;
9330;SDS011;4704;50.470;12.072;2023-03-01T07:36:55;17.48;;;15.73;;
9330;SDS011;4704;50.470;12.072;2023-03-01T07:39:23;17.00;;;15.35;;
9330;SDS011;4704;50.470;12.072;2023-03-01T07:41:50;16.25;;;14.65;;
9330;SDS011;4704;50.470;12.072;2023-03-01T07:44:18;16.55;;;14.95;;
9330;SDS011;4704;50.470;12.072;2023-03-01T07:46:46;15.52;;;13.90;;
9330;SDS011;4704;50.470;12.072;2023-03-01T07:49:15;15.77;;;14.18;;
9330;SDS011;4704;50.470;12.072;2023-03-01T07:51:43;14.88;;;13.43;;
9330;SDS011;4704;50.470;12.072;2023-03-01T07:54:10;14.95;;;13.30;;
9330;SDS011;4704;50.470;12.072;2023-03-01T07:56:38;14.85;;;13.38;;
9330;SDS011;4704;50.470;12.072;2023-03-01T07:59:06;14.02;;;12.52;;
9330;SDS011;4704;50.470;12.072;2023-03-01T08:01:34;14.20;;;12.80;;
9330;SDS011;4704;50.470;12.072;2023-03-01T08:04:01;13.00;;;11.75;;
9330;SDS011;4704;50.470;12.072;2023-03-01T08:06:33;12.68;;;11.40;;
9330;SDS011;4704;50.470;12.072;2023-03-01T08:09:01;13.00;;;11.65;;
9330;SDS011;4704;50.470;12.072;2023-03-01T08:11:29;12.85;;;11.65;;
9330;SDS011;4704;50.470;12.072;2023-03-01T08:13:57;12.63;;;11.43;;
9330;SDS011;4704;50.470;12.072;2023-03-01T08:16:24;12.50;;;11.30;;
9330;SDS011;4704;50.470;12.072;2023-03-01T08:18:52;13.20;;;11.90;;
9330;SDS011;4704;50.470;12.072;2023-03-01T08:21:22;12.38;;;11.05;;
9330;SDS011;4704;50.470;12.072;2023-03-01T08:23:51;12.10;;;11.00;;
9330;SDS011;4704;50.470;12.072;2023-03-01T08:26:19;11.65;;;10.55;;
9330;SDS011;4704;50.470;12.072;2023-03-01T08:28:47;10.93;;;9.93;;
9330;SDS011;4704;50.470;12.072;2023-03-01T08:31:16;10.88;;;9.77;;
9330;SDS011;4704;50.470;12.072;2023-03-01T08:33:44;10.90;;;9.90;;
9330;SDS011;4704;50.470;12.072;2023-03-01T08:36:16;11.15;;;10.05;;
9330;SDS011;4704;50.470;12.072;2023-03-01T08:38:44;10.52;;;9.60;;
9330;SDS011;4704;50.470;12.072;2023-03-01T08:41:14;10.77;;;9.77;;
9330;SDS011;4704;50.470;12.072;2023-03-01T08:43:41;10.35;;;9.35;;
9330;SDS011;4704;50.470;12.072;2023-03-01T08:46:09;10.63;;;9.63;;
9330;SDS011;4704;50.470;12.072;2023-03-01T08:48:37;10.48;;;9.57;;
9330;SDS011;4704;50.470;12.072;2023-03-01T08:51:08;10.25;;;9.35;;
9330;SDS011;4704;50.470;12.072;2023-03-01T08:53:36;9.80;;;8.90;;
9330;SDS011;4704;50.470;12.072;2023-03-01T08:56:04;10.10;;;9.20;;
9330;SDS011;4704;50.470;12.072;2023-03-01T08:58:33;10.20;;;9.30;;
9330;SDS011;4704;50.470;12.072;2023-03-01T09:01:04;10.07;;;9.13;;
9330;SDS011;4704;50.470;12.072;2023-03-01T09:03:33;9.57;;;8.68;;
9330;SDS011;4704;50.470;12.072;2023-03-01T09:06:02;10.27;;;9.27;;
9330;SDS011;4704;50.470;12.072;2023-03-01T09:08:30;10.05;;;9.15;;
9330;SDS011;4704;50.470;12.072;2023-03-01T09:10:58;9.63;;;8.82;;
9330;SDS011;4704;50.470;12.072;2023-03-01T09:13:28;8.82;;;8.00;;
9330;SDS011;4704;50.470;12.072;2023-03-01T09:15:59;9.88;;;8.98;;
9330;SDS011;4704;50.470;12.072;2023-03-01T09:18:27;9.57;;;8.68;;
9330;SDS011;4704;50.470;12.072;2023-03-01T09:21:00;9.55;;;8.65;;
9330;SDS011;4704;50.470;12.072;2023-03-01T09:23:27;9.02;;;8.23;;
9330;SDS011;4704;50.470;12.072;2023-03-01T09:25:55;9.05;;;8.25;;
9330;SDS011;4704;50.470;12.072;2023-03-01T09:28:22;9.23;;;8.43;;
9330;SDS011;4704;50.470;12.072;2023-03-01T09:30:50;9.30;;;8.50;;
9330;SDS011;4704;50.470;12.072;2023-03-01T09:33:18;8.50;;;7.75;;
9330;SDS011;4704;50.470;12.072;2023-03-01T09:35:46;9.38;;;8.43;;
9330;SDS011;4704;50.470;12.072;2023-03-01T09:38:13;8.70;;;7.90;;
9330;SDS011;4704;50.470;12.072;2023-03-01T09:40:44;8.73;;;7.93;;
9330;SDS011;4704;50.470;12.072;2023-03-01T09:43:15;8.85;;;8.05;;
9330;SDS011;4704;50.470;12.072;2023-03-01T09:45:45;9.07;;;8.27;;
9330;SDS011;4704;50.470;12.072;2023-03-01T09:48:15;8.88;;;7.97;;
9330;SDS011;4704;50.470;12.072;2023-03-01T09:50:45;8.65;;;7.95;;
9330;SDS011;4704;50.470;12.072;2023-03-01T09:53:13;8.85;;;8.05;;
9330;SDS011;4704;50.470;12.072;2023-03-01T09:55:43;8.95;;;8.15;;
9330;SDS011;4704;50.470;12.072;2023-03-01T10:00:56;22.65;;;17.10;;
9330;SDS011;4704;50.470;12.072;2023-03-01T10:03:25;17.77;;;15.45;;
9330;SDS011;4704;50.470;12.072;2023-03-01T10:05:58;18.35;;;15.32;;
9330;SDS011;4704;50.470;12.072;2023-03-01T10:08:29;18.42;;;15.00;;
9330;SDS011;4704;50.470;12.072;2023-03-01T10:11:01;17.63;;;15.25;;
9330;SDS011;4704;50.470;12.072;2023-03-01T10:13:32;18.52;;;16.23;;
9330;SDS011;4704;50.470;12.072;2023-03-01T10:16:01;18.20;;;16.30;;
9330;SDS011;4704;50.470;12.072;2023-03-01T10:18:30;18.13;;;16.23;;
9330;SDS011;4704;50.470;12.072;2023-03-01T10:21:00;17.75;;;15.90;;
9330;SDS011;4704;50.470;12.072;2023-03-01T10:23:30;17.98;;;16.08;;
9330;SDS011;4704;50.470;12.072;2023-03-01T10:26:08;18.35;;;15.77;;
9330;SDS011;4704;50.470;12.072;2023-03-01T10:28:40;16.42;;;14.70;;
9330;SDS011;4704;50.470;12.072;2023-03-01T10:31:11;17.38;;;15.48;;
9330;SDS011;4704;50.470;12.072;2023-03-01T10:33:39;15.90;;;14.25;;
9330;SDS011;4704;50.470;12.072;2023-03-01T10:36:09;16.83;;;13.77;;
9330;SDS011;4704;50.470;12.072;2023-03-01T10:38:49;16.70;;;14.00;;
9330;SDS011;4704;50.470;12.072;2023-03-01T10:41:19;14.43;;;12.93;;
9330;SDS011;4704;50.470;12.072;2023-03-01T10:43:49;14.85;;;12.40;;
9330;SDS011;4704;50.470;12.072;2023-03-01T10:46:26;14.15;;;12.32;;
9330;SDS011;4704;50.470;12.072;2023-03-01T10:49:07;14.18;;;11.77;;
9330;SDS011;4704;50.470;12.072;2023-03-01T10:51:35;12.55;;;11.25;;
9330;SDS011;4704;50.470;12.072;2023-03-01T10:54:03;13.82;;;12.35;;
9330;SDS011;4704;50.470;12.072;2023-03-01T10:56:33;12.10;;;10.68;;
9330;SDS011;4704;50.470;12.072;2023-03-01T10:59:20;13.07;;;11.15;;
9330;SDS011;4704;50.470;12.072;2023-03-01T11:02:00;12.68;;;10.55;;
9330;SDS011;4704;50.470;12.072;2023-03-01T11:04:28;11.10;;;10.00;;
9330;SDS011;4704;50.470;12.072;2023-03-01T11:07:00;13.48;;;10.70;;
9330;SDS011;4704;50.470;12.072;2023-03-01T11:09:30;12.93;;;9.90;;
9330;SDS011;4704;50.470;12.072;2023-03-01T11:12:03;11.50;;;10.23;;
9330;SDS011;4704;50.470;12.072;2023-03-01T11:14:32;10.82;;;9.32;;
9330;SDS011;4704;50.470;12.072;2023-03-01T11:17:01;11.20;;;9.82;;
9330;SDS011;4704;50.470;12.072;2023-03-01T11:19:28;12.18;;;9.55;;
9330;SDS011;4704;50.470;12.072;2023-03-01T11:22:01;14.82;;;9.27;;
9330;SDS011;4704;50.470;12.072;2023-03-01T11:24:31;10.65;;;9.52;;
9330;SDS011;4704;50.470;12.072;2023-03-01T11:27:01;9.80;;;8.77;;
9330;SDS011;4704;50.470;12.072;2023-03-01T11:29:33;9.98;;;8.98;;
9330;SDS011;4704;50.470;12.072;2023-03-01T11:32:05;10.30;;;8.85;;
9330;SDS011;4704;50.470;12.072;2023-03-01T11:34:40;10.55;;;8.70;;
9330;SDS011;4704;50.470;12.072;2023-03-01T11:37:14;9.60;;;8.60;;
9330;SDS011;4704;50.470;12.072;2023-03-01T11:39:43;10.10;;;8.68;;
9330;SDS011;4704;50.470;12.072;2023-03-01T11:42:14;9.25;;;8.35;;
9330;SDS011;4704;50.470;12.072;2023-03-01T11:44:43;11.50;;;9.00;;
9330;SDS011;4704;50.470;12.072;2023-03-01T11:47:17;9.40;;;8.15;;
9330;SDS011;4704;50.470;12.072;2023-03-01T11:49:51;8.48;;;7.65;;
9330;SDS011;4704;50.470;12.072;2023-03-01T11:52:24;9.23;;;7.60;;
9330;SDS011;4704;50.470;12.072;2023-03-01T11:54:58;9.07;;;7.38;;
9330;SDS011;4704;50.470;12.072;2023-03-01T11:57:36;8.25;;;7.45;;
9330;SDS011;4704;50.470;12.072;2023-03-01T12:00:14;7.97;;;7.18;;
9330;SDS011;4704;50.470;12.072;2023-03-01T12:05:45;8.32;;;6.68;;
9330;SDS011;4704;50.470;12.072;2023-03-01T12:08:17;10.80;;;7.28;;
9330;SDS011;4704;50.470;12.072;2023-03-01T12:10:48;7.70;;;6.90;;
9330;SDS011;4704;50.470;12.072;2023-03-01T12:16:07;8.65;;;7.57;;
9330;SDS011;4704;50.470;12.072;2023-03-01T12:18:46;7.35;;;6.57;;
9330;SDS011;4704;50.470;12.072;2023-03-01T12:21:20;8.32;;;7.05;;
9330;SDS011;4704;50.470;12.072;2023-03-01T12:24:07;9.15;;;6.70;;
9330;SDS011;4704;50.470;12.072;2023-03-01T12:26:39;8.00;;;6.88;;
9330;SDS011;4704;50.470;12.072;2023-03-01T12:34:44;7.20;;;6.50;;
9330;SDS011;4704;50.470;12.072;2023-03-01T12:37:23;6.65;;;6.05;;
9330;SDS011;4704;50.470;12.072;2023-03-01T12:39:58;7.60;;;6.65;;
9330;SDS011;4704;50.470;12.072;2023-03-01T12:42:30;8.73;;;6.50;;
9330;SDS011;4704;50.470;12.072;2023-03-01T12:45:07;8.63;;;6.68;;
9330;SDS011;4704;50.470;12.072;2023-03-01T12:47:51;12.77;;;6.28;;
9330;SDS011;4704;50.470;12.072;2023-03-01T12:50:23;7.78;;;6.03;;
9330;SDS011;4704;50.470;12.072;2023-03-01T12:52:52;7.28;;;6.05;;
9330;SDS011;4704;50.470;12.072;2023-03-01T12:55:26;6.78;;;6.18;;
9330;SDS011;4704;50.470;12.072;2023-03-01T12:57:59;6.78;;;5.78;;
9330;SDS011;4704;50.470;12.072;2023-03-01T13:00:27;8.57;;;5.85;;
9330;SDS011;4704;50.470;12.072;2023-03-01T13:02:58;7.10;;;6.18;;
9330;SDS011;4704;50.470;12.072;2023-03-01T13:05:31;7.43;;;6.20;;
9330;SDS011;4704;50.470;12.072;2023-03-01T13:08:04;6.82;;;5.88;;
9330;SDS011;4704;50.470;12.072;2023-03-01T13:10:39;6.90;;;6.20;;
9330;SDS011;4704;50.470;12.072;2023-03-01T13:13:12;7.63;;;6.40;;
9330;SDS011;4704;50.470;12.072;2023-03-01T13:15:40;6.50;;;5.90;;
9330;SDS011;4704;50.470;12.072;2023-03-01T13:20:54;6.50;;;5.90;;
9330;SDS011;4704;50.470;12.072;2023-03-01T13:23:26;6.55;;;5.95;;
9330;SDS011;4704;50.470;12.072;2023-03-01T13:26:06;6.30;;;5.78;;
9330;SDS011;4704;50.470;12.072;2023-03-01T13:28:37;6.82;;;6.22;;
9330;SDS011;4704;50.470;12.072;2023-03-01T13:31:07;5.70;;;5.20;;
9330;SDS011;4704;50.470;12.072;2023-03-01T13:33:44;6.53;;;5.93;;
9330;SDS011;4704;50.470;12.072;2023-03-01T13:38:55;7.78;;;6.70;;
9330;SDS011;4704;50.470;12.072;2023-03-01T13:44:13;7.07;;;6.38;;
9330;SDS011;4704;50.470;12.072;2023-03-01T13:46:45;6.28;;;5.68;;
9330;SDS011;4704;50.470;12.072;2023-03-01T13:49:13;6.22;;;5.60;;
9330;SDS011;4704;50.470;12.072;2023-03-01T13:51:41;6.53;;;5.70;;
9330;SDS011;4704;50.470;12.072;2023-03-01T13:54:13;6.45;;;5.85;;
9330;SDS011;4704;50.470;12.072;2023-03-01T13:56:41;7.07;;;6.38;;
9330;SDS011;4704;50.470;12.072;2023-03-01T13:59:14;6.40;;;5.80;;
9330;SDS011;4704;50.470;12.072;2023-03-01T14:01:41;6.50;;;5.90;;
9330;SDS011;4704;50.470;12.072;2023-03-01T14:04:21;6.30;;;5.72;;
9330;SDS011;4704;50.470;12.072;2023-03-01T14:06:48;6.60;;;5.97;;
9330;SDS011;4704;50.470;12.072;2023-03-01T14:09:16;6.65;;;6.05;;
9330;SDS011;4704;50.470;12.072;2023-03-01T14:14:33;6.38;;;5.78;;
9330;SDS011;4704;50.470;12.072;2023-03-01T14:17:10;6.50;;;5.90;;
9330;SDS011;4704;50.470;12.072;2023-03-01T14:19:40;6.82;;;6.22;;
9330;SDS011;4704;50.470;12.072;2023-03-01T14:22:12;7.07;;;6.38;;
9330;SDS011;4704;50.470;12.072;2023-03-01T14:24:44;6.75;;;6.15;;
9330;SDS011;4704;50.470;12.072;2023-03-01T14:27:14;6.70;;;5.82;;
9330;SDS011;4704;50.470;12.072;2023-03-01T14:29:43;6.68;;;6.07;;
9330;SDS011;4704;50.470;12.072;2023-03-01T14:32:12;7.10;;;6.40;;
9330;SDS011;4704;50.470;12.072;2023-03-01T14:34:42;7.20;;;6.40;;
9330;SDS011;4704;50.470;12.072;2023-03-01T14:37:11;6.85;;;6.20;;
9330;SDS011;4704;50.470;12.072;2023-03-01T14:39:39;6.85;;;6.25;;
9330;SDS011;4704;50.470;12.072;2023-03-01T14:42:08;7.07;;;6.10;;
9330;SDS011;4704;50.470;12.072;2023-03-01T14:44:36;6.70;;;6.00;;
9330;SDS011;4704;50.470;12.072;2023-03-01T14:47:05;7.20;;;6.45;;
9330;SDS011;4704;50.470;12.072;2023-03-01T14:49:33;6.82;;;6.13;;
9330;SDS011;4704;50.470;12.072;2023-03-01T14:52:02;6.55;;;5.95;;
9330;SDS011;4704;50.470;12.072;2023-03-01T14:54:35;6.75;;;6.10;;
9330;SDS011;4704;50.470;12.072;2023-03-01T14:57:03;7.00;;;6.30;;
9330;SDS011;4704;50.470;12.072;2023-03-01T14:59:33;6.53;;;5.78;;
9330;SDS011;4704;50.470;12.072;2023-03-01T15:02:01;6.40;;;5.82;;
9330;SDS011;4704;50.470;12.072;2023-03-01T15:04:31;6.80;;;6.10;;
9330;SDS011;4704;50.470;12.072;2023-03-01T15:06:59;7.20;;;6.40;;
9330;SDS011;4704;50.470;12.072;2023-03-01T15:09:30;6.65;;;6.05;;
9330;SDS011;4704;50.470;12.072;2023-03-01T15:11:58;7.03;;;6.38;;
9330;SDS011;4704;50.470;12.072;2023-03-01T15:14:27;6.57;;;5.97;;
9330;SDS011;4704;50.470;12.072;2023-03-01T15:16:55;6.97;;;5.93;;
9330;SDS011;4704;50.470;12.072;2023-03-01T15:19:23;7.22;;;5.97;;
9330;SDS011;4704;50.470;12.072;2023-03-01T15:21:56;6.65;;;6.05;;
9330;SDS011;4704;50.470;12.072;2023-03-01T15:24:24;6.95;;;6.30;;
9330;SDS011;4704;50.470;12.072;2023-03-01T15:26:53;7.85;;;6.30;;
9330;SDS011;4704;50.470;12.072;2023-03-01T15:29:23;7.10;;;6.40;;
9330;SDS011;4704;50.470;12.072;2023-03-01T15:31:55;6.85;;;6.10;;
9330;SDS011;4704;50.470;12.072;2023-03-01T15:34:23;6.82;;;6.22;;